sensor_id;sensor_type;location;lat;lon;timestamp;P1;durP1;ratioP1;P2;durP2;ratioP2
70138;SDS011;57507;43.056;0.150;2023-02-15T00:02:25;1.80;;;1.10;;
70138;SDS011;57507;43.056;0.150;2023-02-15T00:04:51;2.20;;;1.35;;
70138;SDS011;57507;43.056;0.150;2023-02-15T00:07:18;2.47;;;1.40;;
70138;SDS011;57507;43.056;0.150;2023-02-15T00:09:45;1.98;;;1.40;;
70138;SDS011;57507;43.056;0.150;2023-02-15T00:12:11;2.75;;;1.45;;
70138;SDS011;57507;43.056;0.150;2023-02-15T00:14:38;2.30;;;1.40;;
70138;SDS011;57507;43.056;0.150;2023-02-15T00:17:04;2.35;;;1.40;;
70138;SDS011;57507;43.056;0.150;2023-02-15T00:19:30;2.78;;;1.40;;
70138;SDS011;57507;43.056;0.150;2023-02-15T00:21:56;2.40;;;1.27;;
70138;SDS011;57507;43.056;0.150;2023-02-15T00:24:22;4.25;;;1.00;;
70138;SDS011;57507;43.056;0.150;2023-02-15T00:26:48;1.30;;;1.05;;
70138;SDS011;57507;43.056;0.150;2023-02-15T00:29:14;2.63;;;1.25;;
70138;SDS011;57507;43.056;0.150;2023-02-15T00:31:41;2.10;;;1.27;;
70138;SDS011;57507;43.056;0.150;2023-02-15T00:34:10;2.00;;;1.25;;
70138;SDS011;57507;43.056;0.150;2023-02-15T00:36:37;3.17;;;1.20;;
70138;SDS011;57507;43.056;0.150;2023-02-15T00:39:03;2.55;;;1.20;;
70138;SDS011;57507;43.056;0.150;2023-02-15T00:41:29;2.33;;;1.30;;
70138;SDS011;57507;43.056;0.150;2023-02-15T00:43:56;2.22;;;1.45;;
70138;SDS011;57507;43.056;0.150;2023-02-15T00:46:22;2.35;;;1.65;;
70138;SDS011;57507;43.056;0.150;2023-02-15T00:48:48;2.42;;;1.25;;
70138;SDS011;57507;43.056;0.150;2023-02-15T00:51:14;2.53;;;1.30;;
70138;SDS011;57507;43.056;0.150;2023-02-15T00:53:40;2.60;;;1.05;;
70138;SDS011;57507;43.056;0.150;2023-02-15T00:56:06;2.50;;;1.60;;
70138;SDS011;57507;43.056;0.150;2023-02-15T00:58:32;2.03;;;1.48;;
70138;SDS011;57507;43.056;0.150;2023-02-15T01:01:05;3.63;;;1.88;;
70138;SDS011;57507;43.056;0.150;2023-02-15T01:03:32;3.95;;;2.05;;
70138;SDS011;57507;43.056;0.150;2023-02-15T01:05:58;3.63;;;2.08;;
70138;SDS011;57507;43.056;0.150;2023-02-15T01:08:24;2.65;;;1.80;;
70138;SDS011;57507;43.056;0.150;2023-02-15T01:10:50;2.60;;;1.58;;
70138;SDS011;57507;43.056;0.150;2023-02-15T01:13:16;3.00;;;1.50;;
70138;SDS011;57507;43.056;0.150;2023-02-15T01:15:43;2.35;;;1.30;;
70138;SDS011;57507;43.056;0.150;2023-02-15T01:18:09;2.50;;;1.45;;
70138;SDS011;57507;43.056;0.150;2023-02-15T01:20:36;2.15;;;1.30;;
70138;SDS011;57507;43.056;0.150;2023-02-15T01:23:04;3.08;;;1.40;;
70138;SDS011;57507;43.056;0.150;2023-02-15T01:25:30;2.30;;;1.40;;
70138;SDS011;57507;43.056;0.150;2023-02-15T01:27:56;2.15;;;1.17;;
70138;SDS011;57507;43.056;0.150;2023-02-15T01:30:22;1.85;;;1.27;;
70138;SDS011;57507;43.056;0.150;2023-02-15T01:32:48;1.75;;;1.30;;
70138;SDS011;57507;43.056;0.150;2023-02-15T01:35:14;2.60;;;1.45;;
70138;SDS011;57507;43.056;0.150;2023-02-15T01:37:40;2.40;;;1.25;;
70138;SDS011;57507;43.056;0.150;2023-02-15T01:40:07;2.05;;;1.02;;
70138;SDS011;57507;43.056;0.150;2023-02-15T01:42:34;1.92;;;1.13;;
70138;SDS011;57507;43.056;0.150;2023-02-15T01:45:04;3.50;;;1.45;;
70138;SDS011;57507;43.056;0.150;2023-02-15T01:47:44;2.10;;;1.38;;
70138;SDS011;57507;43.056;0.150;2023-02-15T01:52:47;2.33;;;1.40;;
70138;SDS011;57507;43.056;0.150;2023-02-15T01:55:14;2.25;;;1.15;;
70138;SDS011;57507;43.056;0.150;2023-02-15T01:57:41;2.13;;;1.50;;
70138;SDS011;57507;43.056;0.150;2023-02-15T02:00:07;2.63;;;1.02;;
70138;SDS011;57507;43.056;0.150;2023-02-15T02:02:34;2.38;;;1.20;;
70138;SDS011;57507;43.056;0.150;2023-02-15T02:05:01;2.13;;;1.10;;
70138;SDS011;57507;43.056;0.150;2023-02-15T02:07:31;2.45;;;1.20;;
70138;SDS011;57507;43.056;0.150;2023-02-15T02:09:58;2.75;;;1.02;;
70138;SDS011;57507;43.056;0.150;2023-02-15T02:12:24;1.85;;;1.13;;
70138;SDS011;57507;43.056;0.150;2023-02-15T02:14:50;1.40;;;1.00;;
70138;SDS011;57507;43.056;0.150;2023-02-15T02:17:19;1.42;;;1.00;;
70138;SDS011;57507;43.056;0.150;2023-02-15T02:27:47;1.90;;;1.30;;
70138;SDS011;57507;43.056;0.150;2023-02-15T02:32:52;2.47;;;1.25;;
70138;SDS011;57507;43.056;0.150;2023-02-15T02:35:30;1.33;;;1.20;;
70138;SDS011;57507;43.056;0.150;2023-02-15T02:38:08;2.17;;;1.02;;
70138;SDS011;57507;43.056;0.150;2023-02-15T02:48:45;1.83;;;1.13;;
70138;SDS011;57507;43.056;0.150;2023-02-15T02:51:11;1.40;;;1.05;;
70138;SDS011;57507;43.056;0.150;2023-02-15T02:53:39;1.35;;;1.00;;
70138;SDS011;57507;43.056;0.150;2023-02-15T02:56:06;1.92;;;1.27;;
70138;SDS011;57507;43.056;0.150;2023-02-15T02:58:47;1.67;;;1.00;;
70138;SDS011;57507;43.056;0.150;2023-02-15T03:01:21;4.50;;;1.13;;
70138;SDS011;57507;43.056;0.150;2023-02-15T03:03:49;2.08;;;1.10;;
70138;SDS011;57507;43.056;0.150;2023-02-15T03:09:17;2.20;;;0.90;;
70138;SDS011;57507;43.056;0.150;2023-02-15T03:11:47;1.52;;;0.98;;
70138;SDS011;57507;43.056;0.150;2023-02-15T03:14:14;1.60;;;1.10;;
70138;SDS011;57507;43.056;0.150;2023-02-15T03:16:42;2.10;;;1.08;;
70138;SDS011;57507;43.056;0.150;2023-02-15T03:19:10;1.58;;;0.90;;
70138;SDS011;57507;43.056;0.150;2023-02-15T03:21:48;1.58;;;1.00;;
70138;SDS011;57507;43.056;0.150;2023-02-15T03:24:30;1.50;;;0.70;;
70138;SDS011;57507;43.056;0.150;2023-02-15T03:26:57;1.33;;;0.90;;
70138;SDS011;57507;43.056;0.150;2023-02-15T03:29:25;2.35;;;0.90;;
70138;SDS011;57507;43.056;0.150;2023-02-15T03:31:54;1.13;;;0.90;;
70138;SDS011;57507;43.056;0.150;2023-02-15T03:34:20;1.77;;;0.95;;
70138;SDS011;57507;43.056;0.150;2023-02-15T03:36:50;1.90;;;1.00;;
70138;SDS011;57507;43.056;0.150;2023-02-15T03:42:10;1.20;;;0.90;;
70138;SDS011;57507;43.056;0.150;2023-02-15T03:47:17;1.15;;;0.82;;
70138;SDS011;57507;43.056;0.150;2023-02-15T03:52:20;1.30;;;0.93;;
70138;SDS011;57507;43.056;0.150;2023-02-15T03:54:47;2.55;;;1.02;;
70138;SDS011;57507;43.056;0.150;2023-02-15T04:00:12;2.92;;;0.90;;
70138;SDS011;57507;43.056;0.150;2023-02-15T04:05:36;1.23;;;0.93;;
70138;SDS011;57507;43.056;0.150;2023-02-15T04:08:02;1.40;;;1.00;;
70138;SDS011;57507;43.056;0.150;2023-02-15T04:10:28;1.88;;;0.90;;
70138;SDS011;57507;43.056;0.150;2023-02-15T04:13:13;2.50;;;1.00;;
70138;SDS011;57507;43.056;0.150;2023-02-15T04:15:39;1.33;;;0.93;;
70138;SDS011;57507;43.056;0.150;2023-02-15T04:18:23;1.70;;;1.00;;
70138;SDS011;57507;43.056;0.150;2023-02-15T04:21:08;1.98;;;0.60;;
70138;SDS011;57507;43.056;0.150;2023-02-15T04:23:53;1.85;;;0.88;;
70138;SDS011;57507;43.056;0.150;2023-02-15T04:26:37;1.38;;;0.90;;
70138;SDS011;57507;43.056;0.150;2023-02-15T04:29:03;1.10;;;0.82;;
70138;SDS011;57507;43.056;0.150;2023-02-15T04:31:29;1.23;;;0.85;;
70138;SDS011;57507;43.056;0.150;2023-02-15T04:33:55;0.98;;;0.85;;
70138;SDS011;57507;43.056;0.150;2023-02-15T04:36:21;1.27;;;0.88;;
70138;SDS011;57507;43.056;0.150;2023-02-15T04:38:47;1.98;;;1.20;;
70138;SDS011;57507;43.056;0.150;2023-02-15T04:41:13;0.88;;;0.77;;
70138;SDS011;57507;43.056;0.150;2023-02-15T04:43:39;1.17;;;0.90;;
70138;SDS011;57507;43.056;0.150;2023-02-15T04:46:05;1.48;;;1.10;;
70138;SDS011;57507;43.056;0.150;2023-02-15T04:48:32;0.88;;;0.68;;
70138;SDS011;57507;43.056;0.150;2023-02-15T04:50:58;1.48;;;0.80;;
70138;SDS011;57507;43.056;0.150;2023-02-15T04:53:24;1.85;;;1.10;;
70138;SDS011;57507;43.056;0.150;2023-02-15T04:55:50;1.23;;;0.95;;
70138;SDS011;57507;43.056;0.150;2023-02-15T04:58:16;1.77;;;0.90;;
70138;SDS011;57507;43.056;0.150;2023-02-15T05:00:42;1.55;;;0.90;;
70138;SDS011;57507;43.056;0.150;2023-02-15T05:03:08;1.80;;;1.10;;
70138;SDS011;57507;43.056;0.150;2023-02-15T05:05:34;1.67;;;1.05;;
70138;SDS011;57507;43.056;0.150;2023-02-15T05:08:00;0.90;;;0.73;;
70138;SDS011;57507;43.056;0.150;2023-02-15T05:10:26;1.63;;;0.80;;
70138;SDS011;57507;43.056;0.150;2023-02-15T05:12:52;1.15;;;0.88;;
70138;SDS011;57507;43.056;0.150;2023-02-15T05:15:18;1.52;;;0.88;;
70138;SDS011;57507;43.056;0.150;2023-02-15T05:17:44;1.27;;;0.95;;
70138;SDS011;57507;43.056;0.150;2023-02-15T05:20:10;1.08;;;0.75;;
70138;SDS011;57507;43.056;0.150;2023-02-15T05:22:36;1.10;;;0.85;;
70138;SDS011;57507;43.056;0.150;2023-02-15T05:25:02;2.88;;;0.80;;
70138;SDS011;57507;43.056;0.150;2023-02-15T05:27:47;1.63;;;0.90;;
70138;SDS011;57507;43.056;0.150;2023-02-15T05:30:31;1.42;;;1.00;;
70138;SDS011;57507;43.056;0.150;2023-02-15T05:32:57;1.85;;;1.20;;
70138;SDS011;57507;43.056;0.150;2023-02-15T05:35:24;1.25;;;1.00;;
70138;SDS011;57507;43.056;0.150;2023-02-15T05:37:50;1.45;;;0.90;;
70138;SDS011;57507;43.056;0.150;2023-02-15T05:40:16;1.13;;;0.90;;
70138;SDS011;57507;43.056;0.150;2023-02-15T05:42:42;0.95;;;0.80;;
70138;SDS011;57507;43.056;0.150;2023-02-15T05:45:08;2.35;;;1.08;;
70138;SDS011;57507;43.056;0.150;2023-02-15T05:47:34;1.17;;;0.80;;
70138;SDS011;57507;43.056;0.150;2023-02-15T05:50:00;1.02;;;0.90;;
70138;SDS011;57507;43.056;0.150;2023-02-15T05:52:26;2.60;;;0.80;;
70138;SDS011;57507;43.056;0.150;2023-02-15T05:54:52;2.40;;;1.00;;
70138;SDS011;57507;43.056;0.150;2023-02-15T05:57:19;0.77;;;0.73;;
70138;SDS011;57507;43.056;0.150;2023-02-15T05:59:45;1.98;;;0.90;;
70138;SDS011;57507;43.056;0.150;2023-02-15T06:02:11;2.58;;;1.00;;
70138;SDS011;57507;43.056;0.150;2023-02-15T06:04:38;1.60;;;1.08;;
70138;SDS011;57507;43.056;0.150;2023-02-15T06:07:04;1.75;;;1.10;;
70138;SDS011;57507;43.056;0.150;2023-02-15T06:09:30;2.40;;;1.20;;
70138;SDS011;57507;43.056;0.150;2023-02-15T06:11:56;1.20;;;1.00;;
70138;SDS011;57507;43.056;0.150;2023-02-15T06:14:22;1.38;;;1.10;;
70138;SDS011;57507;43.056;0.150;2023-02-15T06:16:48;2.00;;;1.10;;
70138;SDS011;57507;43.056;0.150;2023-02-15T06:19:14;1.88;;;1.30;;
70138;SDS011;57507;43.056;0.150;2023-02-15T06:21:40;2.20;;;1.00;;
70138;SDS011;57507;43.056;0.150;2023-02-15T06:24:07;1.40;;;0.98;;
70138;SDS011;57507;43.056;0.150;2023-02-15T06:26:33;1.33;;;1.10;;
70138;SDS011;57507;43.056;0.150;2023-02-15T06:28:59;1.20;;;0.80;;
70138;SDS011;57507;43.056;0.150;2023-02-15T06:31:25;1.35;;;0.95;;
70138;SDS011;57507;43.056;0.150;2023-02-15T06:33:51;1.23;;;0.85;;
70138;SDS011;57507;43.056;0.150;2023-02-15T06:36:19;2.25;;;1.08;;
70138;SDS011;57507;43.056;0.150;2023-02-15T06:38:45;1.90;;;1.00;;
70138;SDS011;57507;43.056;0.150;2023-02-15T06:41:11;1.88;;;0.90;;
70138;SDS011;57507;43.056;0.150;2023-02-15T06:43:37;1.77;;;0.80;;
70138;SDS011;57507;43.056;0.150;2023-02-15T06:46:03;1.77;;;1.17;;
70138;SDS011;57507;43.056;0.150;2023-02-15T06:48:29;2.38;;;1.00;;
70138;SDS011;57507;43.056;0.150;2023-02-15T06:50:55;1.13;;;1.00;;
70138;SDS011;57507;43.056;0.150;2023-02-15T06:53:21;1.42;;;1.00;;
70138;SDS011;57507;43.056;0.150;2023-02-15T06:55:47;1.58;;;0.98;;
70138;SDS011;57507;43.056;0.150;2023-02-15T06:58:13;1.17;;;0.80;;
70138;SDS011;57507;43.056;0.150;2023-02-15T07:00:39;1.15;;;0.77;;
70138;SDS011;57507;43.056;0.150;2023-02-15T07:03:05;2.13;;;1.08;;
70138;SDS011;57507;43.056;0.150;2023-02-15T07:05:32;0.80;;;0.80;;
70138;SDS011;57507;43.056;0.150;2023-02-15T07:07:59;1.52;;;0.80;;
70138;SDS011;57507;43.056;0.150;2023-02-15T07:10:26;1.02;;;0.80;;
70138;SDS011;57507;43.056;0.150;2023-02-15T07:12:52;1.63;;;1.10;;
70138;SDS011;57507;43.056;0.150;2023-02-15T07:15:19;1.58;;;1.02;;
70138;SDS011;57507;43.056;0.150;2023-02-15T07:17:48;1.90;;;1.10;;
70138;SDS011;57507;43.056;0.150;2023-02-15T07:20:16;1.70;;;1.00;;
70138;SDS011;57507;43.056;0.150;2023-02-15T07:22:43;1.88;;;0.90;;
70138;SDS011;57507;43.056;0.150;2023-02-15T07:25:09;1.45;;;0.88;;
70138;SDS011;57507;43.056;0.150;2023-02-15T07:27:36;2.45;;;1.10;;
70138;SDS011;57507;43.056;0.150;2023-02-15T07:30:02;1.70;;;1.02;;
70138;SDS011;57507;43.056;0.150;2023-02-15T07:32:29;1.60;;;1.10;;
70138;SDS011;57507;43.056;0.150;2023-02-15T07:34:55;1.10;;;0.80;;
70138;SDS011;57507;43.056;0.150;2023-02-15T07:37:22;2.03;;;1.13;;
70138;SDS011;57507;43.056;0.150;2023-02-15T07:39:48;1.67;;;0.93;;
70138;SDS011;57507;43.056;0.150;2023-02-15T07:42:14;1.60;;;0.98;;
70138;SDS011;57507;43.056;0.150;2023-02-15T07:44:40;1.05;;;0.95;;
70138;SDS011;57507;43.056;0.150;2023-02-15T07:47:06;1.70;;;0.90;;
70138;SDS011;57507;43.056;0.150;2023-02-15T07:49:32;2.38;;;1.10;;
70138;SDS011;57507;43.056;0.150;2023-02-15T07:51:58;2.00;;;0.80;;
70138;SDS011;57507;43.056;0.150;2023-02-15T07:54:26;1.83;;;1.20;;
70138;SDS011;57507;43.056;0.150;2023-02-15T07:56:52;1.23;;;0.90;;
70138;SDS011;57507;43.056;0.150;2023-02-15T07:59:18;1.95;;;1.02;;
70138;SDS011;57507;43.056;0.150;2023-02-15T08:01:44;1.23;;;1.00;;
70138;SDS011;57507;43.056;0.150;2023-02-15T08:04:10;2.22;;;1.05;;
70138;SDS011;57507;43.056;0.150;2023-02-15T08:06:36;1.25;;;0.95;;
70138;SDS011;57507;43.056;0.150;2023-02-15T08:09:04;1.30;;;1.05;;
70138;SDS011;57507;43.056;0.150;2023-02-15T08:11:31;1.60;;;0.90;;
70138;SDS011;57507;43.056;0.150;2023-02-15T08:14:02;1.58;;;1.08;;
70138;SDS011;57507;43.056;0.150;2023-02-15T08:19:02;2.17;;;1.08;;
70138;SDS011;57507;43.056;0.150;2023-02-15T08:21:29;1.83;;;1.20;;
70138;SDS011;57507;43.056;0.150;2023-02-15T08:23:56;1.65;;;1.17;;
70138;SDS011;57507;43.056;0.150;2023-02-15T08:26:22;1.52;;;1.17;;
70138;SDS011;57507;43.056;0.150;2023-02-15T08:28:48;1.30;;;0.90;;
70138;SDS011;57507;43.056;0.150;2023-02-15T08:31:15;3.65;;;1.50;;
70138;SDS011;57507;43.056;0.150;2023-02-15T08:33:42;2.40;;;1.10;;
70138;SDS011;57507;43.056;0.150;2023-02-15T08:36:10;2.88;;;1.30;;
70138;SDS011;57507;43.056;0.150;2023-02-15T08:38:36;2.63;;;1.20;;
70138;SDS011;57507;43.056;0.150;2023-02-15T08:41:09;3.08;;;1.40;;
70138;SDS011;57507;43.056;0.150;2023-02-15T08:43:35;1.92;;;1.20;;
70138;SDS011;57507;43.056;0.150;2023-02-15T08:46:01;2.15;;;1.30;;
70138;SDS011;57507;43.056;0.150;2023-02-15T08:48:27;2.10;;;1.05;;
70138;SDS011;57507;43.056;0.150;2023-02-15T08:50:53;2.40;;;1.13;;
70138;SDS011;57507;43.056;0.150;2023-02-15T08:53:19;2.67;;;1.10;;
70138;SDS011;57507;43.056;0.150;2023-02-15T08:55:46;2.17;;;1.38;;
70138;SDS011;57507;43.056;0.150;2023-02-15T08:58:12;2.28;;;1.60;;
70138;SDS011;57507;43.056;0.150;2023-02-15T09:00:38;2.35;;;1.45;;
70138;SDS011;57507;43.056;0.150;2023-02-15T09:03:04;2.47;;;1.30;;
70138;SDS011;57507;43.056;0.150;2023-02-15T09:05:30;2.65;;;1.20;;
70138;SDS011;57507;43.056;0.150;2023-02-15T09:07:56;2.17;;;1.08;;
70138;SDS011;57507;43.056;0.150;2023-02-15T09:10:22;1.50;;;1.00;;
70138;SDS011;57507;43.056;0.150;2023-02-15T09:12:48;1.95;;;1.40;;
70138;SDS011;57507;43.056;0.150;2023-02-15T09:15:15;3.00;;;2.03;;
70138;SDS011;57507;43.056;0.150;2023-02-15T09:17:41;1.92;;;1.30;;
70138;SDS011;57507;43.056;0.150;2023-02-15T09:20:08;3.20;;;1.45;;
70138;SDS011;57507;43.056;0.150;2023-02-15T09:22:34;2.22;;;1.40;;
70138;SDS011;57507;43.056;0.150;2023-02-15T09:25:00;3.15;;;1.23;;
70138;SDS011;57507;43.056;0.150;2023-02-15T09:27:26;1.95;;;1.20;;
70138;SDS011;57507;43.056;0.150;2023-02-15T09:29:52;1.88;;;1.10;;
70138;SDS011;57507;43.056;0.150;2023-02-15T09:32:18;2.88;;;1.08;;
70138;SDS011;57507;43.056;0.150;2023-02-15T09:34:44;2.38;;;1.10;;
70138;SDS011;57507;43.056;0.150;2023-02-15T09:37:10;4.82;;;1.17;;
70138;SDS011;57507;43.056;0.150;2023-02-15T09:39:37;2.00;;;1.55;;
70138;SDS011;57507;43.056;0.150;2023-02-15T10:18:11;3.78;;;1.40;;
70138;SDS011;57507;43.056;0.150;2023-02-15T10:23:29;6.20;;;1.70;;
70138;SDS011;57507;43.056;0.150;2023-02-15T10:28:25;3.55;;;1.40;;
70138;SDS011;57507;43.056;0.150;2023-02-15T10:30:58;3.63;;;1.40;;
70138;SDS011;57507;43.056;0.150;2023-02-15T10:33:37;4.05;;;1.58;;
70138;SDS011;57507;43.056;0.150;2023-02-15T10:43:47;7.75;;;1.92;;
70138;SDS011;57507;43.056;0.150;2023-02-15T10:51:18;4.93;;;1.50;;
70138;SDS011;57507;43.056;0.150;2023-02-15T11:06:19;5.78;;;1.88;;
70138;SDS011;57507;43.056;0.150;2023-02-15T11:08:50;7.30;;;2.30;;
70138;SDS011;57507;43.056;0.150;2023-02-15T11:11:34;5.70;;;2.00;;
70138;SDS011;57507;43.056;0.150;2023-02-15T11:16:51;3.80;;;1.75;;
70138;SDS011;57507;43.056;0.150;2023-02-15T11:19:21;4.35;;;1.40;;
70138;SDS011;57507;43.056;0.150;2023-02-15T11:21:48;4.43;;;0.98;;
70138;SDS011;57507;43.056;0.150;2023-02-15T11:24:17;2.33;;;1.10;;
70138;SDS011;57507;43.056;0.150;2023-02-15T11:26:48;2.42;;;0.77;;
70138;SDS011;57507;43.056;0.150;2023-02-15T11:29:32;2.00;;;0.75;;
70138;SDS011;57507;43.056;0.150;2023-02-15T11:31:59;3.55;;;0.80;;
70138;SDS011;57507;43.056;0.150;2023-02-15T11:34:37;3.80;;;0.77;;
70138;SDS011;57507;43.056;0.150;2023-02-15T11:37:08;2.22;;;0.55;;
70138;SDS011;57507;43.056;0.150;2023-02-15T11:39:35;2.70;;;0.60;;
70138;SDS011;57507;43.056;0.150;2023-02-15T11:42:06;1.85;;;0.65;;
70138;SDS011;57507;43.056;0.150;2023-02-15T11:44:37;1.30;;;0.60;;
70138;SDS011;57507;43.056;0.150;2023-02-15T11:47:08;1.85;;;0.60;;
70138;SDS011;57507;43.056;0.150;2023-02-15T11:49:36;1.05;;;0.57;;
70138;SDS011;57507;43.056;0.150;2023-02-15T11:52:05;2.78;;;0.75;;
70138;SDS011;57507;43.056;0.150;2023-02-15T11:54:33;1.92;;;1.00;;
70138;SDS011;57507;43.056;0.150;2023-02-15T11:57:43;0.93;;;0.63;;
70138;SDS011;57507;43.056;0.150;2023-02-15T11:59:51;1.38;;;0.70;;
70138;SDS011;57507;43.056;0.150;2023-02-15T12:02:20;0.47;;;0.40;;
70138;SDS011;57507;43.056;0.150;2023-02-15T12:04:52;0.70;;;0.40;;
70138;SDS011;57507;43.056;0.150;2023-02-15T12:07:25;1.33;;;0.43;;
70138;SDS011;57507;43.056;0.150;2023-02-15T12:09:57;0.77;;;0.60;;
70138;SDS011;57507;43.056;0.150;2023-02-15T12:12:30;0.90;;;0.47;;
70138;SDS011;57507;43.056;0.150;2023-02-15T12:14:57;1.77;;;0.50;;
70138;SDS011;57507;43.056;0.150;2023-02-15T12:17:24;2.03;;;0.60;;
70138;SDS011;57507;43.056;0.150;2023-02-15T12:19:51;1.27;;;0.63;;
70138;SDS011;57507;43.056;0.150;2023-02-15T12:22:24;0.65;;;0.60;;
70138;SDS011;57507;43.056;0.150;2023-02-15T12:24:52;2.00;;;0.70;;
70138;SDS011;57507;43.056;0.150;2023-02-15T12:27:21;1.27;;;0.70;;
70138;SDS011;57507;43.056;0.150;2023-02-15T12:29:53;1.20;;;0.60;;
70138;SDS011;57507;43.056;0.150;2023-02-15T12:32:22;1.35;;;0.88;;
70138;SDS011;57507;43.056;0.150;2023-02-15T12:34:50;1.05;;;0.68;;
70138;SDS011;57507;43.056;0.150;2023-02-15T12:37:23;1.20;;;0.90;;
70138;SDS011;57507;43.056;0.150;2023-02-15T12:39:52;1.25;;;0.70;;
70138;SDS011;57507;43.056;0.150;2023-02-15T12:42:18;0.80;;;0.80;;
70138;SDS011;57507;43.056;0.150;2023-02-15T12:44:53;2.25;;;0.70;;
70138;SDS011;57507;43.056;0.150;2023-02-15T12:47:19;0.82;;;0.60;;
70138;SDS011;57507;43.056;0.150;2023-02-15T12:52:33;1.10;;;0.70;;
70138;SDS011;57507;43.056;0.150;2023-02-15T12:55:19;0.73;;;0.52;;
70138;SDS011;57507;43.056;0.150;2023-02-15T12:57:46;0.63;;;0.60;;
70138;SDS011;57507;43.056;0.150;2023-02-15T13:02:46;0.73;;;0.73;;
70138;SDS011;57507;43.056;0.150;2023-02-15T13:05:23;1.15;;;0.65;;
70138;SDS011;57507;43.056;0.150;2023-02-15T13:08:00;1.80;;;0.60;;
70138;SDS011;57507;43.056;0.150;2023-02-15T13:12:53;1.30;;;0.65;;
70138;SDS011;57507;43.056;0.150;2023-02-15T13:15:27;1.85;;;0.80;;
70138;SDS011;57507;43.056;0.150;2023-02-15T13:17:55;0.57;;;0.52;;
70138;SDS011;57507;43.056;0.150;2023-02-15T13:20:21;0.80;;;0.70;;
70138;SDS011;57507;43.056;0.150;2023-02-15T13:22:48;0.75;;;0.73;;
70138;SDS011;57507;43.056;0.150;2023-02-15T13:25:20;0.82;;;0.57;;
70138;SDS011;57507;43.056;0.150;2023-02-15T13:27:48;2.15;;;0.80;;
70138;SDS011;57507;43.056;0.150;2023-02-15T13:32:45;0.77;;;0.70;;
70138;SDS011;57507;43.056;0.150;2023-02-15T13:35:15;1.52;;;0.90;;
70138;SDS011;57507;43.056;0.150;2023-02-15T13:40:15;1.20;;;1.00;;
70138;SDS011;57507;43.056;0.150;2023-02-15T13:42:49;2.95;;;0.90;;
70138;SDS011;57507;43.056;0.150;2023-02-15T13:55:38;3.65;;;1.00;;
70138;SDS011;57507;43.056;0.150;2023-02-15T14:01:09;1.23;;;0.77;;
70138;SDS011;57507;43.056;0.150;2023-02-15T14:16:27;1.40;;;0.85;;
70138;SDS011;57507;43.056;0.150;2023-02-15T14:19:05;2.72;;;0.82;;
70138;SDS011;57507;43.056;0.150;2023-02-15T14:21:37;1.98;;;0.80;;
70138;SDS011;57507;43.056;0.150;2023-02-15T14:24:51;1.23;;;0.80;;
70138;SDS011;57507;43.056;0.150;2023-02-15T14:27:07;2.83;;;1.00;;
70138;SDS011;57507;43.056;0.150;2023-02-15T14:32:10;0.98;;;0.70;;
70138;SDS011;57507;43.056;0.150;2023-02-15T14:37:06;2.85;;;0.75;;
70138;SDS011;57507;43.056;0.150;2023-02-15T14:40:19;2.08;;;0.98;;
70138;SDS011;57507;43.056;0.150;2023-02-15T14:45:43;2.22;;;1.02;;
70138;SDS011;57507;43.056;0.150;2023-02-15T14:48:16;1.33;;;0.90;;
70138;SDS011;57507;43.056;0.150;2023-02-15T14:50:44;2.85;;;1.27;;
70138;SDS011;57507;43.056;0.150;2023-02-15T14:56:25;2.10;;;1.23;;
70138;SDS011;57507;43.056;0.150;2023-02-15T15:04:12;1.77;;;1.35;;
70138;SDS011;57507;43.056;0.150;2023-02-15T15:06:42;5.35;;;1.30;;
70138;SDS011;57507;43.056;0.150;2023-02-15T15:09:14;1.63;;;1.33;;
70138;SDS011;57507;43.056;0.150;2023-02-15T15:11:46;1.67;;;1.30;;
70138;SDS011;57507;43.056;0.150;2023-02-15T15:16:57;4.35;;;1.52;;
70138;SDS011;57507;43.056;0.150;2023-02-15T15:22:16;1.75;;;1.25;;
70138;SDS011;57507;43.056;0.150;2023-02-15T15:29:54;4.32;;;1.60;;
70138;SDS011;57507;43.056;0.150;2023-02-15T15:32:21;2.75;;;1.38;;
70138;SDS011;57507;43.056;0.150;2023-02-15T15:37:40;2.00;;;1.30;;
70138;SDS011;57507;43.056;0.150;2023-02-15T15:45:46;2.03;;;1.33;;
70138;SDS011;57507;43.056;0.150;2023-02-15T15:50:51;1.42;;;1.08;;
70138;SDS011;57507;43.056;0.150;2023-02-15T15:53:23;2.22;;;1.40;;
70138;SDS011;57507;43.056;0.150;2023-02-15T15:55:50;2.90;;;1.20;;
70138;SDS011;57507;43.056;0.150;2023-02-15T15:58:19;1.92;;;0.98;;
70138;SDS011;57507;43.056;0.150;2023-02-15T16:00:56;1.38;;;1.10;;
70138;SDS011;57507;43.056;0.150;2023-02-15T16:03:26;2.05;;;1.15;;
70138;SDS011;57507;43.056;0.150;2023-02-15T16:05:52;2.70;;;0.98;;
70138;SDS011;57507;43.056;0.150;2023-02-15T16:08:29;2.60;;;1.45;;
70138;SDS011;57507;43.056;0.150;2023-02-15T16:10:55;2.38;;;1.25;;
70138;SDS011;57507;43.056;0.150;2023-02-15T16:13:22;2.33;;;1.17;;
70138;SDS011;57507;43.056;0.150;2023-02-15T16:15:50;2.60;;;1.35;;
70138;SDS011;57507;43.056;0.150;2023-02-15T16:18:17;2.80;;;1.17;;
70138;SDS011;57507;43.056;0.150;2023-02-15T16:20:54;2.03;;;1.50;;
70138;SDS011;57507;43.056;0.150;2023-02-15T16:28:50;1.67;;;0.93;;
70138;SDS011;57507;43.056;0.150;2023-02-15T16:31:17;2.00;;;1.10;;
70138;SDS011;57507;43.056;0.150;2023-02-15T16:33:43;1.52;;;1.20;;
70138;SDS011;57507;43.056;0.150;2023-02-15T16:36:11;2.03;;;1.20;;
70138;SDS011;57507;43.056;0.150;2023-02-15T16:41:30;1.83;;;1.10;;
70138;SDS011;57507;43.056;0.150;2023-02-15T16:43:56;1.77;;;1.25;;
70138;SDS011;57507;43.056;0.150;2023-02-15T16:48:50;1.75;;;1.17;;
70138;SDS011;57507;43.056;0.150;2023-02-15T16:51:19;1.17;;;0.90;;
70138;SDS011;57507;43.056;0.150;2023-02-15T16:53:46;1.63;;;1.10;;
70138;SDS011;57507;43.056;0.150;2023-02-15T16:56:13;1.75;;;1.10;;
70138;SDS011;57507;43.056;0.150;2023-02-15T16:58:42;2.53;;;1.20;;
70138;SDS011;57507;43.056;0.150;2023-02-15T17:01:08;3.13;;;1.15;;
70138;SDS011;57507;43.056;0.150;2023-02-15T17:03:35;1.52;;;1.20;;
70138;SDS011;57507;43.056;0.150;2023-02-15T17:06:02;1.83;;;1.23;;
70138;SDS011;57507;43.056;0.150;2023-02-15T17:08:35;2.13;;;1.33;;
70138;SDS011;57507;43.056;0.150;2023-02-15T17:11:11;3.35;;;1.90;;
70138;SDS011;57507;43.056;0.150;2023-02-15T17:13:38;4.80;;;2.15;;
70138;SDS011;57507;43.056;0.150;2023-02-15T17:21:00;5.45;;;2.63;;
70138;SDS011;57507;43.056;0.150;2023-02-15T17:23:33;5.22;;;2.70;;
70138;SDS011;57507;43.056;0.150;2023-02-15T17:26:02;3.38;;;2.25;;
70138;SDS011;57507;43.056;0.150;2023-02-15T17:28:36;5.10;;;2.58;;
70138;SDS011;57507;43.056;0.150;2023-02-15T17:31:05;4.32;;;2.88;;
70138;SDS011;57507;43.056;0.150;2023-02-15T17:36:04;3.70;;;2.42;;
70138;SDS011;57507;43.056;0.150;2023-02-15T17:38:31;4.45;;;2.50;;
70138;SDS011;57507;43.056;0.150;2023-02-15T17:40:57;4.82;;;3.25;;
70138;SDS011;57507;43.056;0.150;2023-02-15T17:43:24;3.78;;;2.35;;
70138;SDS011;57507;43.056;0.150;2023-02-15T17:45:50;5.15;;;2.40;;
70138;SDS011;57507;43.056;0.150;2023-02-15T17:48:20;4.03;;;2.20;;
70138;SDS011;57507;43.056;0.150;2023-02-15T17:50:47;3.97;;;2.30;;
70138;SDS011;57507;43.056;0.150;2023-02-15T17:53:14;4.35;;;2.40;;
70138;SDS011;57507;43.056;0.150;2023-02-15T17:55:41;3.40;;;2.30;;
70138;SDS011;57507;43.056;0.150;2023-02-15T17:58:11;5.22;;;2.30;;
70138;SDS011;57507;43.056;0.150;2023-02-15T18:00:39;3.30;;;2.10;;
70138;SDS011;57507;43.056;0.150;2023-02-15T18:03:24;3.50;;;2.25;;
70138;SDS011;57507;43.056;0.150;2023-02-15T18:06:13;4.32;;;2.28;;
70138;SDS011;57507;43.056;0.150;2023-02-15T18:08:57;3.20;;;2.30;;
70138;SDS011;57507;43.056;0.150;2023-02-15T18:11:42;3.30;;;1.70;;
70138;SDS011;57507;43.056;0.150;2023-02-15T18:14:12;4.65;;;2.38;;
70138;SDS011;57507;43.056;0.150;2023-02-15T18:16:39;4.68;;;2.45;;
70138;SDS011;57507;43.056;0.150;2023-02-15T18:19:16;5.38;;;2.28;;
70138;SDS011;57507;43.056;0.150;2023-02-15T18:21:43;3.13;;;2.20;;
70138;SDS011;57507;43.056;0.150;2023-02-15T18:24:13;4.68;;;2.30;;